createdAt,value
2018-07-30T00:00:08.516Z,451.67
2018-07-30T00:02:10.846Z,437.98
2018-07-30T00:04:13.106Z,399.25
2018-07-30T00:06:15.413Z,438.20
2018-07-30T00:08:17.664Z,435.50
2018-07-30T00:10:19.935Z,536.30
2018-07-30T00:12:22.238Z,498.67
2018-07-30T00:14:24.546Z,523.47
2018-07-30T00:16:26.852Z,489.43
2018-07-30T00:18:29.108Z,481.23
2018-07-30T00:20:31.401Z,481.47
2018-07-30T00:22:33.684Z,450.92
2018-07-30T00:24:36.008Z,498.85
2018-07-30T00:26:38.264Z,485.23
2018-07-30T00:28:40.549Z,474.08
2018-07-30T00:30:42.841Z,415.82
2018-07-30T00:32:45.126Z,471.55
2018-07-30T00:34:47.411Z,404.90
2018-07-30T00:36:49.686Z,378.80
2018-07-30T00:38:51.989Z,378.80
2018-07-30T00:40:54.284Z,576.02
2018-07-30T00:42:56.565Z,371.05
2018-07-30T00:44:58.839Z,403.77
2018-07-30T00:47:01.093Z,381.85
2018-07-30T00:49:03.395Z,401.45
2018-07-30T00:51:05.658Z,486.70
2018-07-30T00:53:07.955Z,442.25
2018-07-30T00:55:10.214Z,420.48
2018-07-30T00:57:12.496Z,440.62
2018-07-30T00:59:14.784Z,440.02
2018-07-30T01:01:17.029Z,429.02
2018-07-30T01:03:19.324Z,436.05
2018-07-30T01:05:21.615Z,531.33
2018-07-30T01:07:23.877Z,468.85
2018-07-30T01:09:26.135Z,421.37
2018-07-30T01:11:28.444Z,495.18
2018-07-30T01:13:30.682Z,464.93
2018-07-30T01:15:32.973Z,490.45
2018-07-30T01:17:35.274Z,461.52
2018-07-30T01:19:37.617Z,435.23
2018-07-30T01:21:39.909Z,462.85
2018-07-30T01:23:42.199Z,440.85
2018-07-30T01:25:44.745Z,431.55
2018-07-30T01:27:47.042Z,416.48
2018-07-30T01:29:49.293Z,409.20
2018-07-30T01:31:51.597Z,344.00
2018-07-30T01:33:53.908Z,368.65
2018-07-30T01:35:56.160Z,368.55
2018-07-30T01:37:58.469Z,382.77
2018-07-30T01:40:00.735Z,392.45
2018-07-30T01:42:02.997Z,395.70
2018-07-30T01:44:05.298Z,347.98
2018-07-30T01:46:07.591Z,392.85
2018-07-30T01:48:09.899Z,374.32
2018-07-30T01:50:12.165Z,366.25
2018-07-30T01:52:14.498Z,376.27
2018-07-30T01:54:16.769Z,333.13
2018-07-30T01:56:19.017Z,360.17
2018-07-30T01:58:21.289Z,359.27
2018-07-30T02:00:23.560Z,338.05
2018-07-30T02:02:25.838Z,353.48
2018-07-30T02:04:28.098Z,339.15
2018-07-30T02:06:30.391Z,338.92
2018-07-30T02:08:32.674Z,329.48
2018-07-30T02:10:34.935Z,321.57
2018-07-30T02:12:37.220Z,319.48
2018-07-30T02:14:39.520Z,315.45
2018-07-30T02:16:41.795Z,324.60
2018-07-30T02:18:44.082Z,314.05
2018-07-30T02:20:46.371Z,309.60
2018-07-30T02:22:48.664Z,306.93
2018-07-30T02:24:50.945Z,302.40
2018-07-30T02:26:53.207Z,282.77
2018-07-30T02:28:55.472Z,295.07
2018-07-30T02:30:57.761Z,279.07
2018-07-30T02:33:00.039Z,282.02
2018-07-30T02:35:02.335Z,283.40
2018-07-30T02:37:04.600Z,293.90
2018-07-30T02:39:06.915Z,295.35
2018-07-30T02:41:09.315Z,289.90
2018-07-30T02:43:11.567Z,286.05
2018-07-30T02:45:13.879Z,264.05
2018-07-30T02:47:16.163Z,259.90
2018-07-30T02:49:18.413Z,241.97
2018-07-30T02:51:20.721Z,237.95
2018-07-30T02:53:23.005Z,236.75
2018-07-30T02:55:25.244Z,234.18
2018-07-30T02:57:27.585Z,234.32
2018-07-30T02:59:30.102Z,231.20
2018-07-30T03:01:32.361Z,218.00
2018-07-30T03:03:34.689Z,218.70
2018-07-30T03:05:36.959Z,214.85
2018-07-30T03:07:39.238Z,241.75
2018-07-30T03:09:41.531Z,202.57
2018-07-30T03:11:43.777Z,211.12
2018-07-30T03:13:46.054Z,232.35
2018-07-30T03:15:48.349Z,216.10
2018-07-30T03:17:50.659Z,208.25
2018-07-30T03:19:52.896Z,201.88
2018-07-30T03:21:55.255Z,216.48
2018-07-30T03:23:57.561Z,185.43
2018-07-30T03:25:59.837Z,194.15
2018-07-30T03:28:02.091Z,184.97
2018-07-30T03:30:04.397Z,189.07
2018-07-30T03:32:06.695Z,181.20
2018-07-30T03:34:08.957Z,185.65
2018-07-30T03:36:11.216Z,192.90
2018-07-30T03:38:13.512Z,189.22
2018-07-30T03:40:15.793Z,165.77
2018-07-30T03:42:18.118Z,177.87
2018-07-30T03:44:20.364Z,165.92
2018-07-30T03:46:22.661Z,179.82
2018-07-30T03:48:24.912Z,167.43
2018-07-30T03:50:27.181Z,159.70
2018-07-30T03:52:29.491Z,159.60
2018-07-30T03:54:31.744Z,151.87
2018-07-30T03:56:34.006Z,159.27
2018-07-30T03:58:36.304Z,145.72
2018-07-30T04:00:38.578Z,152.00
2018-07-30T04:02:40.895Z,143.32
2018-07-30T04:04:43.154Z,149.25
2018-07-30T04:06:45.410Z,138.45
2018-07-30T04:08:47.720Z,140.03
2018-07-30T04:10:49.965Z,132.47
2018-07-30T04:12:52.269Z,178.07
2018-07-30T04:14:54.529Z,103.87
2018-07-30T04:16:56.834Z,192.18
2018-07-30T04:18:59.102Z,219.40
2018-07-30T04:21:01.399Z,164.10
2018-07-30T04:23:03.658Z,239.97
2018-07-30T04:25:05.953Z,179.05
2018-07-30T04:27:08.254Z,201.67
2018-07-30T04:29:10.526Z,259.52
2018-07-30T04:31:12.823Z,411.45
2018-07-30T04:33:15.112Z,364.25
2018-07-30T04:35:17.404Z,444.00
2018-07-30T04:37:19.704Z,446.30
2018-07-30T04:39:22.012Z,478.58
2018-07-30T04:41:24.290Z,371.27
2018-07-30T04:43:26.603Z,366.40
2018-07-30T04:45:28.900Z,550.30
2018-07-30T04:47:31.181Z,366.20
2018-07-30T04:49:33.444Z,82.55
2018-07-30T04:51:35.739Z,27.98
2018-07-30T04:53:38.001Z,37.30
2018-07-30T04:55:40.309Z,69.82
2018-07-30T04:57:42.572Z,87.90
2018-07-30T04:59:44.887Z,151.55
2018-07-30T05:01:47.186Z,171.53
2018-07-30T05:03:49.492Z,153.68
2018-07-30T05:05:51.740Z,168.22
2018-07-30T05:07:54.058Z,170.30
2018-07-30T05:09:56.308Z,174.70
2018-07-30T05:11:58.640Z,174.27
2018-07-30T05:14:00.927Z,174.93
2018-07-30T05:16:03.422Z,172.93
2018-07-30T05:18:06.402Z,180.82
2018-07-30T05:20:08.694Z,167.85
2018-07-30T05:22:10.968Z,175.18
2018-07-30T05:24:13.260Z,178.40
2018-07-30T05:26:15.560Z,176.65
2018-07-30T05:28:17.874Z,173.30
2018-07-30T05:30:20.186Z,168.00
2018-07-30T05:32:22.466Z,162.77
2018-07-30T05:34:24.780Z,169.68
2018-07-30T05:36:27.052Z,172.70
2018-07-30T05:38:29.350Z,171.50
2018-07-30T05:40:31.596Z,163.15
2018-07-30T05:42:33.886Z,160.37
2018-07-30T05:44:36.142Z,163.07
2018-07-30T05:46:38.431Z,165.03
2018-07-30T05:48:40.750Z,154.97
2018-07-30T05:50:42.991Z,157.67
2018-07-30T05:52:45.272Z,162.03
2018-07-30T05:54:47.542Z,155.70
2018-07-30T05:56:49.855Z,153.65
2018-07-30T05:58:52.139Z,157.18
2018-07-30T06:00:54.438Z,153.95
2018-07-30T06:02:56.750Z,158.82
2018-07-30T06:04:59.022Z,150.95
2018-07-30T06:07:01.337Z,157.12
2018-07-30T06:09:03.588Z,156.95
2018-07-30T06:11:05.847Z,149.77
2018-07-30T06:13:08.136Z,150.57
2018-07-30T06:15:10.456Z,154.25
2018-07-30T06:17:12.743Z,146.65
2018-07-30T06:19:15.026Z,150.18
2018-07-30T06:21:17.352Z,144.07
2018-07-30T06:23:19.649Z,146.72
2018-07-30T06:25:21.968Z,142.62
2018-07-30T06:27:24.284Z,142.57
2018-07-30T06:29:26.560Z,140.35
2018-07-30T06:31:28.870Z,147.10
2018-07-30T06:33:31.146Z,142.32
2018-07-30T06:35:33.409Z,145.82
2018-07-30T06:37:35.789Z,145.47
2018-07-30T06:39:38.079Z,150.25
2018-07-30T06:41:40.362Z,139.30
2018-07-30T06:43:42.628Z,141.10
2018-07-30T06:45:44.904Z,140.12
2018-07-30T06:47:47.245Z,139.62
2018-07-30T06:49:49.483Z,137.37
2018-07-30T06:51:51.791Z,142.47
2018-07-30T06:53:54.059Z,133.00
2018-07-30T06:55:56.322Z,136.03
2018-07-30T06:57:58.652Z,137.85
2018-07-30T07:00:00.913Z,129.87
2018-07-30T07:02:03.223Z,134.60
2018-07-30T07:04:05.523Z,130.82
2018-07-30T07:06:07.795Z,134.63
2018-07-30T07:08:10.129Z,128.97
2018-07-30T07:10:12.687Z,134.20
2018-07-30T07:12:14.989Z,125.20
2018-07-30T07:14:17.289Z,136.80
2018-07-30T07:16:19.668Z,126.65
2018-07-30T07:18:22.024Z,127.20
2018-07-30T07:20:24.419Z,140.80
2018-07-30T07:22:26.738Z,128.10
2018-07-30T07:24:29.057Z,127.58
2018-07-30T07:26:31.349Z,123.67
2018-07-30T07:28:33.615Z,121.60
2018-07-30T07:30:35.904Z,116.45
2018-07-30T07:32:38.199Z,125.15
2018-07-30T07:34:40.494Z,125.67
2018-07-30T07:36:42.805Z,130.00
2018-07-30T07:38:45.087Z,127.85
2018-07-30T07:40:47.380Z,135.57
2018-07-30T07:42:49.655Z,132.25
2018-07-30T07:44:51.946Z,131.35
2018-07-30T07:46:54.387Z,128.68
2018-07-30T07:48:56.638Z,122.65
2018-07-30T07:50:59.596Z,141.15
2018-07-30T07:53:01.787Z,119.82
2018-07-30T07:55:04.059Z,122.80
2018-07-30T07:57:06.381Z,129.10
2018-07-30T07:59:08.632Z,128.35
2018-07-30T08:01:10.935Z,121.53
2018-07-30T08:03:13.247Z,123.75
2018-07-30T08:05:15.574Z,126.10
2018-07-30T08:07:17.891Z,122.35
2018-07-30T08:09:20.142Z,124.90
2018-07-30T08:11:22.507Z,121.40
2018-07-30T08:13:24.794Z,121.87
2018-07-30T08:15:27.115Z,125.75
2018-07-30T08:17:29.393Z,117.87
2018-07-30T08:19:31.663Z,122.85
2018-07-30T08:21:33.929Z,122.60
2018-07-30T08:23:36.187Z,113.62
2018-07-30T08:25:38.526Z,118.65
2018-07-30T08:27:40.873Z,116.37
2018-07-30T08:29:43.159Z,111.65
2018-07-30T08:31:45.458Z,120.42
2018-07-30T08:33:47.747Z,112.60
2018-07-30T08:35:49.989Z,113.55
2018-07-30T08:37:52.308Z,104.45
2018-07-30T08:39:54.576Z,107.40
2018-07-30T08:41:56.871Z,108.15
2018-07-30T08:43:59.208Z,107.40
2018-07-30T08:46:01.514Z,104.63
2018-07-30T08:48:03.832Z,105.60
2018-07-30T08:50:06.118Z,104.05
2018-07-30T08:52:08.418Z,109.78
2018-07-30T08:54:10.728Z,113.68
2018-07-30T08:56:13.011Z,107.45
2018-07-30T08:58:15.318Z,105.22
2018-07-30T09:00:17.596Z,101.70
2018-07-30T09:02:19.902Z,105.43
2018-07-30T09:04:22.366Z,106.97
2018-07-30T09:06:24.677Z,99.30
2018-07-30T09:08:26.980Z,100.58
2018-07-30T09:10:29.318Z,101.70
2018-07-30T09:12:31.637Z,100.65
2018-07-30T09:14:33.881Z,94.72
2018-07-30T09:16:36.191Z,107.20
2018-07-30T09:18:38.499Z,106.15
2018-07-30T09:20:40.775Z,91.92
2018-07-30T09:22:43.161Z,93.60
2018-07-30T09:24:45.471Z,101.15
2018-07-30T09:26:47.744Z,93.25
2018-07-30T09:28:49.975Z,94.87
2018-07-30T09:30:52.269Z,99.15
2018-07-30T09:32:54.559Z,97.72
2018-07-30T09:34:56.817Z,97.65
2018-07-30T09:36:59.129Z,96.45
2018-07-30T09:39:02.239Z,100.55
2018-07-30T09:41:04.536Z,89.25
2018-07-30T09:43:06.815Z,83.62
2018-07-30T09:45:09.071Z,90.25
2018-07-30T09:47:11.813Z,96.75
2018-07-30T09:49:14.117Z,86.87
2018-07-30T09:51:16.399Z,96.53
2018-07-30T09:53:18.707Z,93.07
2018-07-30T09:55:20.966Z,81.37
2018-07-30T09:57:23.277Z,80.57
2018-07-30T09:59:25.556Z,84.17
2018-07-30T10:01:27.807Z,95.25
2018-07-30T10:03:30.124Z,84.47
2018-07-30T10:05:32.417Z,81.57
2018-07-30T10:07:34.860Z,79.77
2018-07-30T10:09:37.000Z,85.28
2018-07-30T10:11:39.331Z,79.03
2018-07-30T10:13:41.569Z,87.08
2018-07-30T10:15:43.849Z,82.55
2018-07-30T10:17:46.168Z,79.20
2018-07-30T10:19:48.391Z,76.92
2018-07-30T10:21:50.719Z,69.67
2018-07-30T10:23:53.005Z,75.37
2018-07-30T10:25:55.276Z,75.42
2018-07-30T10:27:57.573Z,75.37
2018-07-30T10:29:59.841Z,76.40
2018-07-30T10:32:02.093Z,69.95
2018-07-30T10:34:04.391Z,70.95
2018-07-30T10:36:06.664Z,69.22
2018-07-30T10:38:09.007Z,73.52
2018-07-30T10:40:11.243Z,73.55
2018-07-30T10:42:13.538Z,64.40
2018-07-30T10:44:15.920Z,71.85
2018-07-30T10:46:18.241Z,69.53
2018-07-30T10:48:20.465Z,73.47
2018-07-30T10:50:22.783Z,68.10
2018-07-30T10:52:25.062Z,68.97
2018-07-30T10:54:27.341Z,76.07
2018-07-30T10:56:29.636Z,69.00
2018-07-30T10:58:31.910Z,68.67
2018-07-30T11:00:34.721Z,62.48
2018-07-30T11:02:37.884Z,69.10
2018-07-30T11:04:40.161Z,69.80
2018-07-30T11:06:42.411Z,62.90
2018-07-30T11:08:44.721Z,65.25
2018-07-30T11:10:47.007Z,67.62
2018-07-30T11:12:49.289Z,66.07
2018-07-30T11:14:51.659Z,74.07
2018-07-30T11:16:53.959Z,62.70
2018-07-30T11:18:56.284Z,66.82
2018-07-30T11:20:58.555Z,64.53
2018-07-30T11:23:00.851Z,69.37
2018-07-30T11:25:03.173Z,64.07
2018-07-30T11:27:05.452Z,60.52
2018-07-30T11:29:07.780Z,62.73
2018-07-30T11:31:10.025Z,64.77
2018-07-30T11:33:12.291Z,62.43
2018-07-30T11:35:14.565Z,61.88
2018-07-30T11:37:16.858Z,69.17
2018-07-30T11:39:19.158Z,63.70
2018-07-30T11:41:21.412Z,58.68
2018-07-30T11:43:23.690Z,58.02
2018-07-30T11:45:25.987Z,58.85
2018-07-30T11:47:28.279Z,61.25
2018-07-30T11:49:30.542Z,59.38
2018-07-30T11:51:32.839Z,59.75
2018-07-30T11:53:35.098Z,60.03
2018-07-30T11:55:37.356Z,58.83
2018-07-30T11:57:39.649Z,61.50
2018-07-30T11:59:41.934Z,62.00
2018-07-30T12:01:44.235Z,55.45
2018-07-30T12:03:46.433Z,61.02
2018-07-30T12:05:48.776Z,63.55
2018-07-30T12:07:51.072Z,54.38
2018-07-30T12:09:53.413Z,57.53
2018-07-30T12:11:55.741Z,56.90
2018-07-30T12:13:58.004Z,56.60
2018-07-30T12:16:00.322Z,63.42
2018-07-30T12:18:02.581Z,53.58
2018-07-30T12:20:04.878Z,52.62
2018-07-30T12:22:07.169Z,53.58
2018-07-30T12:24:09.482Z,55.25
2018-07-30T12:26:11.776Z,53.68
2018-07-30T12:28:14.153Z,59.05
2018-07-30T12:30:16.532Z,53.60
2018-07-30T12:32:18.730Z,53.73
2018-07-30T12:34:21.007Z,50.65
2018-07-30T12:36:23.330Z,49.03
2018-07-30T12:38:25.603Z,52.73
2018-07-30T12:40:27.845Z,50.05
2018-07-30T12:42:30.137Z,53.63
2018-07-30T12:44:32.430Z,47.58
2018-07-30T12:46:34.674Z,50.58
2018-07-30T12:48:36.985Z,52.05
2018-07-30T12:50:39.260Z,50.92
2018-07-30T12:52:41.521Z,47.70
2018-07-30T12:54:43.799Z,54.10
2018-07-30T12:56:46.128Z,50.88
2018-07-30T12:58:48.422Z,49.18
2018-07-30T13:00:50.685Z,48.35
2018-07-30T13:02:53.056Z,49.67
2018-07-30T13:04:55.282Z,45.67
2018-07-30T13:06:57.566Z,47.90
2018-07-30T13:08:59.859Z,48.68
2018-07-30T13:11:02.142Z,52.55
2018-07-30T13:13:04.406Z,51.42
2018-07-30T13:15:06.661Z,50.23
2018-07-30T13:17:08.946Z,45.58
2018-07-30T13:19:11.236Z,48.98
2018-07-30T13:21:13.517Z,49.42
2018-07-30T13:23:16.330Z,48.60
2018-07-30T13:25:18.600Z,51.98
2018-07-30T13:27:20.945Z,44.93
2018-07-30T13:29:23.220Z,48.45
2018-07-30T13:31:25.483Z,45.65
2018-07-30T13:33:27.765Z,46.88
2018-07-30T13:35:30.069Z,46.68
2018-07-30T13:37:32.364Z,51.98
2018-07-30T13:39:34.690Z,44.85
2018-07-30T13:41:36.993Z,49.18
2018-07-30T13:43:39.262Z,47.45
2018-07-30T13:45:41.618Z,44.93
2018-07-30T13:47:43.924Z,48.35
2018-07-30T13:49:46.164Z,44.60
2018-07-30T13:51:48.438Z,41.80
2018-07-30T13:53:50.759Z,45.92
2018-07-30T13:55:53.057Z,47.73
2018-07-30T13:57:55.329Z,43.15
2018-07-30T13:59:57.673Z,42.93
2018-07-30T14:01:59.919Z,44.80
2018-07-30T14:04:02.206Z,47.90
2018-07-30T14:06:04.688Z,44.77
2018-07-30T14:08:06.912Z,48.33
2018-07-30T14:10:09.178Z,44.77
2018-07-30T14:12:11.494Z,46.90
2018-07-30T14:14:13.797Z,44.35
2018-07-30T14:16:16.096Z,50.00
2018-07-30T14:18:18.361Z,45.78
2018-07-30T14:20:20.686Z,41.42
2018-07-30T14:22:22.929Z,42.90
2018-07-30T14:24:25.234Z,41.37
2018-07-30T14:26:27.515Z,44.63
2018-07-30T14:28:29.862Z,45.58
2018-07-30T14:30:32.083Z,44.98
2018-07-30T14:32:34.376Z,42.00
2018-07-30T14:34:36.640Z,46.80
2018-07-30T14:36:39.361Z,38.40
2018-07-30T14:38:41.605Z,43.28
2018-07-30T14:40:43.919Z,41.85
2018-07-30T14:42:46.194Z,40.55
2018-07-30T14:44:48.511Z,43.20
2018-07-30T14:46:50.782Z,40.40
2018-07-30T14:48:53.063Z,43.75
2018-07-30T14:50:55.354Z,38.60
2018-07-30T14:52:57.597Z,40.48
2018-07-30T14:54:59.873Z,42.00
2018-07-30T14:57:02.213Z,45.43
2018-07-30T14:59:04.547Z,44.58
2018-07-30T15:01:06.813Z,41.75
2018-07-30T15:03:09.082Z,43.92
2018-07-30T15:05:11.413Z,42.85
2018-07-30T15:07:13.678Z,41.77
2018-07-30T15:09:15.943Z,39.25
2018-07-30T15:11:18.206Z,43.28
2018-07-30T15:13:20.493Z,43.10
2018-07-30T15:15:22.825Z,38.48
2018-07-30T15:17:25.075Z,38.30
2018-07-30T15:19:27.383Z,36.38
2018-07-30T15:21:29.652Z,38.92
2018-07-30T15:23:31.943Z,42.13
2018-07-30T15:25:34.277Z,39.48
2018-07-30T15:27:36.568Z,39.67
2018-07-30T15:29:38.861Z,35.20
2018-07-30T15:31:41.145Z,39.65
2018-07-30T15:33:43.402Z,40.40
2018-07-30T15:35:45.672Z,40.70
2018-07-30T15:37:47.963Z,36.68
2018-07-30T15:39:50.216Z,40.33
2018-07-30T15:41:52.523Z,38.05
2018-07-30T15:43:54.820Z,36.35
2018-07-30T15:45:57.114Z,39.33
2018-07-30T15:47:59.394Z,39.38
2018-07-30T15:50:01.653Z,34.05
2018-07-30T15:52:03.952Z,38.85
2018-07-30T15:54:06.249Z,37.83
2018-07-30T15:56:08.520Z,37.78
2018-07-30T15:58:10.812Z,35.73
2018-07-30T16:00:13.132Z,32.80
2018-07-30T16:02:15.469Z,34.53
2018-07-30T16:04:17.746Z,37.30
2018-07-30T16:06:20.116Z,37.83
2018-07-30T16:08:22.410Z,38.98
2018-07-30T16:10:24.659Z,32.45
2018-07-30T16:12:26.918Z,36.80
2018-07-30T16:14:29.210Z,34.10
2018-07-30T16:16:31.488Z,37.10
2018-07-30T16:18:33.780Z,32.20
2018-07-30T16:20:36.085Z,35.35
2018-07-30T16:22:38.360Z,33.85
2018-07-30T16:24:40.680Z,32.50
2018-07-30T16:26:42.969Z,37.55
2018-07-30T16:28:45.248Z,37.35
2018-07-30T16:30:47.616Z,32.23
2018-07-30T16:32:49.888Z,33.90
2018-07-30T16:34:52.151Z,34.88
2018-07-30T16:36:55.092Z,35.13
2018-07-30T16:38:57.408Z,37.42
2018-07-30T16:40:59.654Z,31.37
2018-07-30T16:43:01.958Z,35.03
2018-07-30T16:45:04.230Z,32.20
2018-07-30T16:47:06.629Z,34.73
2018-07-30T16:49:08.826Z,36.58
2018-07-30T16:51:11.075Z,32.40
2018-07-30T16:53:13.424Z,33.73
2018-07-30T16:55:16.079Z,34.58
2018-07-30T16:57:18.361Z,33.08
2018-07-30T16:59:20.733Z,31.82
2018-07-30T17:01:23.041Z,35.10
2018-07-30T17:03:25.323Z,34.53
2018-07-30T17:05:27.637Z,33.23
2018-07-30T17:07:29.891Z,30.65
2018-07-30T17:09:32.185Z,30.70
2018-07-30T17:11:34.436Z,31.07
2018-07-30T17:13:36.707Z,32.25
2018-07-30T17:15:38.970Z,31.55
2018-07-30T17:17:41.328Z,32.83
2018-07-30T17:19:43.617Z,32.58
2018-07-30T17:21:45.880Z,33.18
2018-07-30T17:23:48.166Z,31.75
2018-07-30T17:25:50.466Z,32.78
2018-07-30T17:27:52.780Z,31.20
2018-07-30T17:29:55.173Z,33.85
2018-07-30T17:31:57.367Z,33.25
2018-07-30T17:33:59.668Z,31.02
2018-07-30T17:36:01.980Z,30.23
2018-07-30T17:38:04.313Z,33.08
2018-07-30T17:40:06.641Z,29.85
2018-07-30T17:42:08.923Z,32.63
2018-07-30T17:44:11.218Z,32.13
2018-07-30T17:46:13.523Z,32.78
2018-07-30T17:48:15.965Z,31.17
2018-07-30T17:50:18.208Z,32.38
2018-07-30T17:52:20.474Z,33.42
2018-07-30T17:54:22.752Z,30.52
2018-07-30T17:56:25.021Z,30.20
2018-07-30T17:58:27.276Z,28.60
2018-07-30T18:00:29.570Z,31.10
2018-07-30T18:02:31.899Z,31.87
2018-07-30T18:04:34.206Z,31.02
2018-07-30T18:06:36.456Z,30.43
2018-07-30T18:08:38.724Z,31.80
2018-07-30T18:10:41.030Z,30.27
2018-07-30T18:12:43.895Z,30.68
2018-07-30T18:14:46.157Z,30.40
2018-07-30T18:16:48.469Z,30.70
2018-07-30T18:18:50.745Z,25.77
2018-07-30T18:20:53.037Z,27.73
2018-07-30T18:22:55.289Z,28.12
2018-07-30T18:24:57.570Z,29.63
2018-07-30T18:26:59.854Z,27.50
2018-07-30T18:29:02.129Z,29.23
2018-07-30T18:31:04.401Z,27.73
2018-07-30T18:33:06.814Z,27.60
2018-07-30T18:35:09.134Z,29.10
2018-07-30T18:37:11.417Z,28.12
2018-07-30T18:39:13.977Z,28.50
2018-07-30T18:41:16.244Z,29.18
2018-07-30T18:43:18.571Z,30.00
2018-07-30T18:45:20.858Z,28.40
2018-07-30T18:47:23.208Z,25.80
2018-07-30T18:49:25.462Z,27.98
2018-07-30T18:51:27.729Z,28.47
2018-07-30T18:53:30.031Z,29.10
2018-07-30T18:55:32.320Z,27.15
2018-07-30T18:57:34.562Z,26.12
2018-07-30T18:59:36.858Z,25.77
2018-07-30T19:01:39.136Z,28.23
2018-07-30T19:03:41.472Z,26.15
2018-07-30T19:05:43.766Z,27.00
2018-07-30T19:07:46.061Z,28.30
2018-07-30T19:09:48.320Z,23.15
2018-07-30T19:11:50.617Z,28.62
2018-07-30T19:13:52.975Z,23.85
2018-07-30T19:15:55.279Z,26.37
2018-07-30T19:17:57.598Z,27.62
2018-07-30T19:19:59.874Z,26.65
2018-07-30T19:22:02.171Z,26.60
2018-07-30T19:24:04.538Z,27.60
2018-07-30T19:26:06.759Z,26.95
2018-07-30T19:28:09.054Z,25.08
2018-07-30T19:30:11.367Z,26.10
2018-07-30T19:32:13.680Z,28.42
2018-07-30T19:34:15.926Z,24.67
2018-07-30T19:36:18.219Z,25.45
2018-07-30T19:38:20.532Z,24.72
2018-07-30T19:40:22.796Z,26.10
2018-07-30T19:42:25.120Z,26.07
2018-07-30T19:44:27.468Z,26.20
2018-07-30T19:46:29.702Z,25.77
2018-07-30T19:48:32.021Z,24.10
2018-07-30T19:50:34.706Z,24.92
2018-07-30T19:52:36.944Z,24.15
2018-07-30T19:54:39.268Z,25.50
2018-07-30T19:56:41.560Z,23.98
2018-07-30T19:58:44.009Z,22.90
2018-07-30T20:00:46.183Z,23.30
2018-07-30T20:02:48.431Z,24.12
2018-07-30T20:04:50.696Z,24.55
2018-07-30T20:06:53.069Z,24.23
2018-07-30T20:08:55.333Z,23.77
2018-07-30T20:10:57.538Z,24.37
2018-07-30T20:12:59.868Z,24.25
2018-07-30T20:15:02.172Z,25.55
2018-07-30T20:17:04.529Z,24.50
2018-07-30T20:19:06.792Z,23.95
2018-07-30T20:21:09.061Z,25.57
2018-07-30T20:23:11.324Z,23.30
2018-07-30T20:25:13.687Z,25.25
2018-07-30T20:27:15.913Z,23.98
2018-07-30T20:29:18.200Z,24.40
2018-07-30T20:31:20.537Z,23.32
2018-07-30T20:33:22.830Z,24.82
2018-07-30T20:35:25.095Z,25.52
2018-07-30T20:37:27.388Z,24.27
2018-07-30T20:39:29.668Z,22.50
2018-07-30T20:41:31.946Z,22.70
2018-07-30T20:43:34.496Z,23.62
2018-07-30T20:45:36.753Z,23.02
2018-07-30T20:47:39.037Z,22.58
2018-07-30T20:49:41.286Z,23.38
2018-07-30T20:51:43.591Z,22.60
2018-07-30T20:53:45.877Z,22.65
2018-07-30T20:55:48.125Z,23.18
2018-07-30T20:57:50.441Z,22.55
2018-07-30T20:59:52.687Z,23.25
2018-07-30T21:01:54.968Z,23.15
2018-07-30T21:03:57.258Z,21.80
2018-07-30T21:05:59.567Z,23.20
2018-07-30T21:08:01.840Z,23.30
2018-07-30T21:10:04.106Z,23.90
2018-07-30T21:12:06.389Z,23.15
2018-07-30T21:14:08.708Z,22.62
2018-07-30T21:16:10.984Z,21.68
2018-07-30T21:18:13.284Z,23.10
2018-07-30T21:20:15.549Z,22.13
2018-07-30T21:22:17.809Z,21.40
2018-07-30T21:24:20.103Z,21.30
2018-07-30T21:26:22.369Z,21.50
2018-07-30T21:28:24.645Z,21.30
2018-07-30T21:30:26.948Z,21.80
2018-07-30T21:32:29.695Z,21.30
2018-07-30T21:34:31.973Z,19.92
2018-07-30T21:36:34.245Z,21.27
2018-07-30T21:38:36.496Z,19.30
2018-07-30T21:40:38.776Z,20.08
2018-07-30T21:42:41.075Z,20.35
2018-07-30T21:44:43.334Z,19.50
2018-07-30T21:46:45.726Z,19.85
2018-07-30T21:48:48.017Z,21.87
2018-07-30T21:50:50.294Z,19.32
2018-07-30T21:52:52.601Z,18.27
2018-07-30T21:54:54.902Z,20.23
2018-07-30T21:56:57.148Z,19.10
2018-07-30T21:58:59.424Z,17.12
2018-07-30T22:01:01.737Z,18.82
2018-07-30T22:03:07.159Z,18.67
2018-07-30T22:05:09.422Z,19.95
2018-07-30T22:07:11.736Z,19.62
2018-07-30T22:09:13.994Z,20.35
2018-07-30T22:11:16.261Z,19.35
2018-07-30T22:13:18.583Z,19.67
2018-07-30T22:15:20.849Z,19.95
2018-07-30T22:17:23.431Z,20.23
2018-07-30T22:19:25.693Z,18.80
2018-07-30T22:21:28.005Z,19.95
2018-07-30T22:23:30.272Z,18.80
2018-07-30T22:25:32.523Z,19.17
2018-07-30T22:27:34.813Z,19.92
2018-07-30T22:29:37.076Z,19.67
2018-07-30T22:31:39.369Z,18.75
2018-07-30T22:33:41.631Z,20.70
2018-07-30T22:35:43.901Z,19.55
2018-07-30T22:37:46.192Z,19.02
2018-07-30T22:39:48.450Z,19.37
2018-07-30T22:41:50.712Z,19.07
2018-07-30T22:43:53.004Z,18.77
2018-07-30T22:45:55.288Z,19.55
2018-07-30T22:47:57.558Z,19.20
2018-07-30T22:49:59.858Z,20.02
2018-07-30T22:52:02.134Z,19.60
2018-07-30T22:54:04.396Z,18.62
2018-07-30T22:56:06.748Z,20.25
2018-07-30T22:58:09.000Z,18.05
2018-07-30T23:00:11.304Z,19.40
2018-07-30T23:02:13.610Z,18.70
2018-07-30T23:04:15.848Z,17.75
2018-07-30T23:06:18.162Z,19.80
2018-07-30T23:08:20.440Z,19.07
2018-07-30T23:10:22.694Z,18.70
2018-07-30T23:12:24.986Z,18.12
2018-07-30T23:14:27.274Z,16.23
2018-07-30T23:16:29.579Z,18.73
2018-07-30T23:18:31.858Z,17.82
2018-07-30T23:20:34.256Z,17.92
2018-07-30T23:22:36.559Z,18.00
2018-07-30T23:24:38.842Z,17.57
2018-07-30T23:26:41.130Z,17.42
2018-07-30T23:28:43.425Z,15.75
2018-07-30T23:30:45.738Z,15.23
2018-07-30T23:32:47.991Z,15.32
2018-07-30T23:34:50.276Z,15.00
2018-07-30T23:36:52.622Z,16.02
2018-07-30T23:38:54.880Z,16.52
2018-07-30T23:40:57.131Z,14.95
2018-07-30T23:42:59.387Z,16.48
2018-07-30T23:45:01.732Z,14.00
2018-07-30T23:47:04.001Z,15.78
2018-07-30T23:49:06.256Z,14.45
2018-07-30T23:51:08.548Z,14.80
2018-07-30T23:53:10.816Z,15.43
2018-07-30T23:55:13.152Z,14.10
2018-07-30T23:57:15.394Z,14.98
2018-07-30T23:59:17.688Z,14.75
